createdAt,value
2018-09-26T00:00:05.726Z,96.50
2018-09-26T00:01:05.735Z,95.94
2018-09-26T00:02:05.781Z,96.22
2018-09-26T00:03:05.762Z,95.75
2018-09-26T00:04:05.802Z,95.75
2018-09-26T00:05:05.791Z,95.65
2018-09-26T00:06:05.805Z,95.27
2018-09-26T00:07:05.835Z,94.70
2018-09-26T00:08:05.906Z,94.79
2018-09-26T00:09:05.856Z,95.27
2018-09-26T00:10:05.871Z,95.36
2018-09-26T00:11:05.893Z,94.89
2018-09-26T00:12:05.905Z,94.60
2018-09-26T00:13:05.935Z,94.79
2018-09-26T00:14:05.927Z,94.89
2018-09-26T00:15:05.946Z,94.89
2018-09-26T00:16:05.967Z,94.70
2018-09-26T00:17:05.981Z,94.70
2018-09-26T00:18:06.004Z,96.03
2018-09-26T00:19:06.012Z,96.60
2018-09-26T00:20:06.024Z,96.50
2018-09-26T00:21:06.040Z,96.03
2018-09-26T00:22:06.082Z,95.27
2018-09-26T00:23:06.079Z,95.46
2018-09-26T00:24:06.100Z,95.65
2018-09-26T00:25:06.109Z,95.46
2018-09-26T00:26:06.115Z,95.27
2018-09-26T00:27:06.127Z,95.03
2018-09-26T00:28:06.144Z,96.36
2018-09-26T00:29:06.170Z,97.41
2018-09-26T00:30:06.179Z,97.78
2018-09-26T00:31:06.194Z,98.45
2018-09-26T00:32:06.203Z,98.35
2018-09-26T00:33:06.227Z,97.55
2018-09-26T00:34:06.240Z,96.83
2018-09-26T00:35:06.251Z,96.64
2018-09-26T00:36:06.317Z,95.84
2018-09-26T00:37:06.287Z,95.36
2018-09-26T00:38:06.367Z,96.12
2018-09-26T00:39:06.324Z,96.93
2018-09-26T00:40:06.328Z,97.12
2018-09-26T00:41:06.347Z,96.60
2018-09-26T00:42:06.360Z,96.60
2018-09-26T00:43:06.385Z,96.41
2018-09-26T00:44:06.393Z,96.22
2018-09-26T00:45:06.411Z,95.75
2018-09-26T00:46:06.423Z,96.03
2018-09-26T00:47:06.435Z,96.55
2018-09-26T00:48:06.448Z,97.12
2018-09-26T00:49:06.468Z,97.78
2018-09-26T00:50:06.484Z,98.73
2018-09-26T00:51:06.501Z,97.97
2018-09-26T00:52:06.535Z,97.69
2018-09-26T00:53:06.530Z,97.60
2018-09-26T00:54:06.558Z,99.11
2018-09-26T00:55:06.559Z,98.07
2018-09-26T00:56:06.582Z,97.31
2018-09-26T00:57:06.610Z,96.93
2018-09-26T00:58:06.601Z,96.79
2018-09-26T00:59:06.619Z,97.97
2018-09-26T01:00:06.656Z,97.50
2018-09-26T01:01:06.667Z,97.31
2018-09-26T01:02:06.662Z,97.22
2018-09-26T01:03:06.685Z,97.92
2018-09-26T01:04:06.695Z,96.79
2018-09-26T01:05:06.710Z,97.36
2018-09-26T01:06:06.728Z,97.02
2018-09-26T01:07:06.761Z,97.31
2018-09-26T01:08:06.757Z,97.41
2018-09-26T01:09:06.784Z,97.41
2018-09-26T01:10:06.786Z,98.07
2018-09-26T01:11:06.804Z,97.27
2018-09-26T01:12:06.814Z,96.60
2018-09-26T01:13:06.834Z,95.94
2018-09-26T01:14:06.848Z,96.50
2018-09-26T01:15:06.865Z,96.03
2018-09-26T01:16:06.882Z,95.36
2018-09-26T01:17:06.896Z,95.08
2018-09-26T01:18:06.912Z,96.12
2018-09-26T01:19:06.926Z,96.50
2018-09-26T01:20:06.943Z,96.03
2018-09-26T01:21:06.961Z,96.31
2018-09-26T01:22:06.971Z,96.12
2018-09-26T01:23:06.994Z,95.36
2018-09-26T01:24:06.999Z,96.88
2018-09-26T01:25:07.023Z,96.69
2018-09-26T01:26:07.036Z,96.88
2018-09-26T01:27:07.056Z,96.41
2018-09-26T01:28:07.066Z,96.60
2018-09-26T01:29:07.085Z,96.69
2018-09-26T01:30:07.099Z,96.41
2018-09-26T01:31:07.135Z,96.12
2018-09-26T01:32:07.122Z,94.89
2018-09-26T01:33:07.152Z,95.36
2018-09-26T01:34:07.158Z,96.03
2018-09-26T01:35:07.172Z,96.03
2018-09-26T01:36:07.191Z,95.84
2018-09-26T01:37:07.198Z,96.50
2018-09-26T01:38:07.217Z,96.50
2018-09-26T01:39:07.230Z,96.22
2018-09-26T01:40:07.248Z,96.12
2018-09-26T01:41:07.278Z,96.79
2018-09-26T01:42:07.284Z,95.84
2018-09-26T01:43:07.321Z,95.55
2018-09-26T01:44:07.329Z,95.75
2018-09-26T01:45:07.321Z,96.41
2018-09-26T01:46:07.357Z,96.79
2018-09-26T01:47:07.394Z,96.41
2018-09-26T01:48:07.380Z,95.75
2018-09-26T01:49:07.400Z,95.27
2018-09-26T01:50:07.406Z,95.27
2018-09-26T01:51:07.442Z,95.55
2018-09-26T01:52:07.430Z,94.89
2018-09-26T01:53:07.452Z,94.84
2018-09-26T01:54:07.466Z,95.36
2018-09-26T01:55:07.475Z,95.55
2018-09-26T01:56:07.518Z,95.75
2018-09-26T01:57:07.510Z,94.89
2018-09-26T01:58:07.529Z,94.60
2018-09-26T01:59:07.552Z,95.27
2018-09-26T02:00:07.563Z,95.22
2018-09-26T02:01:07.566Z,94.18
2018-09-26T02:02:07.584Z,93.51
2018-09-26T02:03:07.600Z,93.23
2018-09-26T02:04:07.619Z,93.79
2018-09-26T02:05:07.636Z,93.99
2018-09-26T02:06:07.656Z,93.79
2018-09-26T02:07:07.669Z,94.18
2018-09-26T02:08:07.691Z,93.99
2018-09-26T02:09:07.696Z,93.79
2018-09-26T02:10:07.712Z,93.32
2018-09-26T02:11:07.722Z,93.89
2018-09-26T02:12:07.735Z,93.99
2018-09-26T02:13:07.757Z,93.99
2018-09-26T02:14:07.775Z,94.18
2018-09-26T02:15:07.793Z,93.51
2018-09-26T02:16:07.809Z,92.94
2018-09-26T02:17:07.812Z,92.94
2018-09-26T02:18:07.837Z,93.04
2018-09-26T02:19:07.850Z,93.13
2018-09-26T02:20:07.865Z,93.23
2018-09-26T02:21:07.874Z,93.41
2018-09-26T02:22:07.901Z,93.04
2018-09-26T02:23:07.909Z,93.99
2018-09-26T02:24:07.962Z,94.56
2018-09-26T02:25:07.937Z,94.74
2018-09-26T02:26:07.953Z,94.65
2018-09-26T02:27:07.972Z,94.18
2018-09-26T02:28:07.983Z,94.46
2018-09-26T02:29:08.008Z,94.37
2018-09-26T02:30:08.019Z,94.27
2018-09-26T02:31:08.035Z,94.18
2018-09-26T02:32:08.046Z,94.93
2018-09-26T02:33:08.069Z,94.56
2018-09-26T02:34:08.081Z,95.12
2018-09-26T02:35:08.096Z,94.08
2018-09-26T02:36:08.107Z,93.89
2018-09-26T02:37:08.128Z,93.13
2018-09-26T02:38:08.139Z,92.61
2018-09-26T02:39:08.184Z,92.75
2018-09-26T02:40:08.164Z,92.46
2018-09-26T02:41:08.180Z,92.61
2018-09-26T02:42:08.208Z,92.89
2018-09-26T02:43:08.212Z,92.80
2018-09-26T02:44:08.236Z,92.80
2018-09-26T02:45:08.245Z,92.51
2018-09-26T02:46:08.259Z,92.22
2018-09-26T02:47:08.277Z,92.27
2018-09-26T02:48:08.300Z,92.85
2018-09-26T02:49:08.318Z,92.46
2018-09-26T02:50:08.329Z,92.41
2018-09-26T02:51:08.345Z,92.56
2018-09-26T02:52:08.362Z,92.80
2018-09-26T02:53:08.391Z,91.85
2018-09-26T02:54:08.388Z,92.18
2018-09-26T02:55:08.409Z,92.32
2018-09-26T02:56:08.420Z,91.85
2018-09-26T02:57:08.433Z,92.27
2018-09-26T02:58:08.465Z,92.18
2018-09-26T02:59:08.466Z,92.66
2018-09-26T03:00:08.480Z,92.75
2018-09-26T03:01:08.494Z,93.60
2018-09-26T03:02:08.511Z,93.04
2018-09-26T03:03:08.525Z,93.51
2018-09-26T03:04:08.543Z,93.79
2018-09-26T03:05:08.566Z,93.32
2018-09-26T03:06:08.598Z,93.23
2018-09-26T03:07:08.600Z,93.41
2018-09-26T03:08:08.601Z,93.99
2018-09-26T03:09:08.648Z,93.79
2018-09-26T03:10:08.648Z,93.79
2018-09-26T03:11:08.651Z,93.89
2018-09-26T03:12:08.661Z,94.65
2018-09-26T03:13:08.676Z,94.93
2018-09-26T03:14:08.695Z,94.42
2018-09-26T03:15:08.711Z,95.27
2018-09-26T03:16:08.729Z,93.99
2018-09-26T03:17:08.744Z,94.08
2018-09-26T03:18:08.781Z,94.37
2018-09-26T03:19:08.771Z,93.99
2018-09-26T03:20:08.791Z,94.65
2018-09-26T03:21:08.806Z,93.99
2018-09-26T03:22:08.826Z,93.32
2018-09-26T03:23:08.837Z,93.32
2018-09-26T03:24:08.855Z,93.99
2018-09-26T03:25:08.891Z,94.18
2018-09-26T03:26:08.881Z,94.18
2018-09-26T03:27:08.908Z,94.18
2018-09-26T03:28:08.915Z,94.46
2018-09-26T03:29:08.920Z,94.42
2018-09-26T03:30:08.938Z,93.99
2018-09-26T03:31:08.957Z,94.37
2018-09-26T03:32:08.975Z,95.17
2018-09-26T03:33:09.004Z,95.65
2018-09-26T03:34:09.008Z,95.65
2018-09-26T03:35:09.017Z,96.03
2018-09-26T03:36:09.084Z,96.60
2018-09-26T03:37:09.049Z,95.84
2018-09-26T03:38:09.085Z,96.31
2018-09-26T03:39:09.077Z,95.46
2018-09-26T03:40:09.093Z,94.89
2018-09-26T03:41:09.105Z,94.56
2018-09-26T03:42:09.125Z,94.08
2018-09-26T03:43:09.136Z,93.99
2018-09-26T03:44:09.154Z,94.74
2018-09-26T03:45:09.174Z,94.18
2018-09-26T03:46:09.185Z,94.37
2018-09-26T03:47:09.199Z,94.37
2018-09-26T03:48:09.228Z,94.37
2018-09-26T03:49:09.234Z,94.56
2018-09-26T03:50:09.248Z,94.08
2018-09-26T03:51:09.267Z,94.18
2018-09-26T03:52:09.276Z,94.65
2018-09-26T03:53:09.290Z,94.89
2018-09-26T03:54:09.314Z,96.03
2018-09-26T03:55:09.323Z,96.03
2018-09-26T03:56:09.358Z,95.46
2018-09-26T03:57:09.368Z,96.12
2018-09-26T03:58:09.372Z,95.84
2018-09-26T03:59:09.396Z,95.36
2018-09-26T04:00:09.400Z,95.08
2018-09-26T04:01:09.413Z,94.46
2018-09-26T04:02:09.464Z,94.56
2018-09-26T04:03:09.449Z,94.79
2018-09-26T04:04:09.465Z,95.36
2018-09-26T04:05:09.481Z,95.55
2018-09-26T04:06:09.501Z,95.46
2018-09-26T04:07:09.521Z,94.98
2018-09-26T04:08:09.520Z,94.89
2018-09-26T04:09:09.544Z,94.89
2018-09-26T04:10:09.556Z,95.75
2018-09-26T04:11:09.579Z,96.98
2018-09-26T04:12:09.584Z,96.12
2018-09-26T04:13:09.671Z,96.50
2018-09-26T04:14:09.634Z,96.88
2018-09-26T04:15:09.633Z,96.79
2018-09-26T04:16:09.659Z,98.02
2018-09-26T04:17:09.659Z,97.83
2018-09-26T04:18:09.678Z,97.36
2018-09-26T04:19:09.690Z,96.41
2018-09-26T04:20:09.761Z,96.50
2018-09-26T04:21:09.719Z,96.31
2018-09-26T04:22:09.740Z,96.03
2018-09-26T04:23:09.755Z,94.89
2018-09-26T04:24:09.806Z,94.79
2018-09-26T04:25:09.787Z,94.70
2018-09-26T04:26:09.811Z,94.51
2018-09-26T04:27:09.823Z,94.51
2018-09-26T04:28:09.836Z,94.03
2018-09-26T04:29:09.844Z,93.94
2018-09-26T04:30:09.881Z,93.84
2018-09-26T04:31:09.878Z,94.13
2018-09-26T04:32:09.909Z,94.13
2018-09-26T04:33:10.160Z,93.94
2018-09-26T04:34:09.924Z,93.89
2018-09-26T04:35:09.937Z,94.08
2018-09-26T04:36:09.967Z,94.13
2018-09-26T04:37:09.966Z,94.79
2018-09-26T04:38:09.988Z,94.60
2018-09-26T04:39:09.999Z,93.94
2018-09-26T04:40:10.021Z,93.27
2018-09-26T04:41:10.042Z,94.03
2018-09-26T04:42:10.048Z,94.46
2018-09-26T04:43:10.225Z,94.13
2018-09-26T04:44:10.075Z,94.32
2018-09-26T04:45:10.100Z,94.18
2018-09-26T04:46:10.102Z,94.13
2018-09-26T04:47:10.125Z,93.56
2018-09-26T04:48:10.135Z,93.65
2018-09-26T04:49:10.172Z,93.65
2018-09-26T04:50:10.171Z,94.13
2018-09-26T04:51:10.186Z,93.94
2018-09-26T04:52:10.194Z,94.13
2018-09-26T04:53:10.214Z,93.56
2018-09-26T04:54:10.223Z,93.65
2018-09-26T04:55:10.251Z,93.84
2018-09-26T04:56:10.274Z,94.13
2018-09-26T04:57:10.274Z,93.79
2018-09-26T04:58:10.323Z,92.85
2018-09-26T04:59:10.302Z,93.23
2018-09-26T05:00:10.329Z,93.23
2018-09-26T05:01:10.331Z,93.13
2018-09-26T05:02:10.353Z,92.75
2018-09-26T05:03:10.366Z,92.75
2018-09-26T05:04:10.380Z,93.13
2018-09-26T05:05:10.396Z,92.75
2018-09-26T05:06:10.417Z,92.99
2018-09-26T05:07:10.433Z,93.37
2018-09-26T05:08:10.476Z,93.18
2018-09-26T05:09:10.456Z,93.94
2018-09-26T05:10:10.472Z,93.94
2018-09-26T05:11:10.483Z,94.13
2018-09-26T05:12:10.505Z,93.46
2018-09-26T05:13:10.523Z,93.27
2018-09-26T05:14:10.536Z,93.27
2018-09-26T05:15:10.554Z,93.60
2018-09-26T05:16:10.562Z,93.41
2018-09-26T05:17:10.585Z,93.41
2018-09-26T05:18:10.601Z,93.46
2018-09-26T05:19:10.613Z,94.13
2018-09-26T05:20:10.623Z,93.84
2018-09-26T05:21:10.647Z,94.32
2018-09-26T05:22:10.681Z,94.13
2018-09-26T05:23:10.726Z,94.79
2018-09-26T05:24:10.683Z,95.17
2018-09-26T05:25:10.730Z,94.98
2018-09-26T05:26:10.720Z,94.93
2018-09-26T05:27:10.750Z,93.99
2018-09-26T05:28:10.753Z,93.41
2018-09-26T05:29:10.759Z,93.32
2018-09-26T05:30:10.792Z,92.46
2018-09-26T05:31:10.789Z,92.08
2018-09-26T05:32:10.811Z,91.99
2018-09-26T05:33:10.827Z,91.71
2018-09-26T05:34:10.851Z,91.42
2018-09-26T05:35:10.851Z,91.18
2018-09-26T05:36:10.870Z,91.13
2018-09-26T05:37:10.889Z,91.52
2018-09-26T05:38:10.914Z,92.18
2018-09-26T05:39:10.926Z,92.13
2018-09-26T05:40:10.935Z,91.47
2018-09-26T05:41:10.969Z,91.42
2018-09-26T05:42:10.975Z,91.18
2018-09-26T05:43:10.985Z,90.80
2018-09-26T05:44:10.999Z,90.89
2018-09-26T05:45:11.021Z,90.80
2018-09-26T05:46:11.024Z,90.70
2018-09-26T05:47:11.036Z,91.18
2018-09-26T05:48:11.065Z,90.99
2018-09-26T05:49:11.090Z,90.99
2018-09-26T05:50:11.119Z,90.70
2018-09-26T05:51:11.124Z,89.61
2018-09-26T05:52:11.113Z,88.89
2018-09-26T05:53:11.137Z,88.18
2018-09-26T05:54:11.156Z,85.84
2018-09-26T05:55:11.172Z,84.16
2018-09-26T05:56:11.193Z,81.92
2018-09-26T05:57:11.201Z,80.11
2018-09-26T05:58:11.215Z,80.01
2018-09-26T05:59:11.242Z,79.02
2018-09-26T06:00:11.248Z,79.40
2018-09-26T06:01:11.273Z,78.54
2018-09-26T06:02:11.290Z,79.49
2018-09-26T06:03:11.302Z,79.97
2018-09-26T06:04:11.319Z,80.26
2018-09-26T06:05:11.355Z,80.16
2018-09-26T06:06:11.364Z,80.07
2018-09-26T06:07:11.390Z,79.59
2018-09-26T06:08:11.389Z,79.97
2018-09-26T06:09:11.405Z,80.44
2018-09-26T06:10:11.424Z,80.73
2018-09-26T06:11:11.438Z,80.44
2018-09-26T06:12:11.455Z,80.07
2018-09-26T06:13:11.475Z,79.97
2018-09-26T06:14:11.492Z,80.26
2018-09-26T06:15:11.498Z,80.73
2018-09-26T06:16:11.521Z,80.83
2018-09-26T06:17:11.533Z,80.26
2018-09-26T06:18:11.553Z,80.41
2018-09-26T06:19:11.571Z,81.02
2018-09-26T06:20:11.589Z,81.02
2018-09-26T06:21:11.610Z,80.83
2018-09-26T06:22:11.621Z,80.73
2018-09-26T06:23:11.637Z,80.73
2018-09-26T06:24:11.657Z,80.83
2018-09-26T06:25:11.675Z,81.12
2018-09-26T06:26:11.689Z,81.17
2018-09-26T06:27:11.716Z,81.49
2018-09-26T06:28:11.718Z,81.78
2018-09-26T06:29:11.739Z,81.74
2018-09-26T06:30:11.750Z,81.59
2018-09-26T06:31:11.781Z,81.78
2018-09-26T06:32:11.797Z,81.21
2018-09-26T06:33:11.813Z,81.97
2018-09-26T06:34:11.819Z,81.59
2018-09-26T06:35:11.860Z,81.21
2018-09-26T06:36:11.864Z,81.12
2018-09-26T06:37:11.974Z,80.64
2018-09-26T06:38:11.887Z,81.21
2018-09-26T06:39:11.903Z,81.68
2018-09-26T06:40:11.928Z,82.12
2018-09-26T06:41:11.935Z,82.79
2018-09-26T06:42:11.957Z,84.36
2018-09-26T06:43:11.976Z,83.69
2018-09-26T06:44:11.992Z,82.11
2018-09-26T06:45:12.024Z,80.87
2018-09-26T06:46:12.020Z,81.12
2018-09-26T06:47:12.045Z,81.59
2018-09-26T06:48:12.067Z,81.63
2018-09-26T06:49:12.071Z,80.49
2018-09-26T06:50:12.096Z,80.30
2018-09-26T06:51:12.108Z,79.67
2018-09-26T06:52:12.133Z,79.67
2018-09-26T06:53:12.150Z,79.00
2018-09-26T06:54:12.159Z,78.52
2018-09-26T06:55:12.194Z,78.52
2018-09-26T06:56:12.192Z,78.43
2018-09-26T06:57:12.216Z,78.77
2018-09-26T06:58:12.224Z,79.48
2018-09-26T06:59:12.276Z,79.00
2018-09-26T07:00:12.293Z,78.33
2018-09-26T07:01:12.278Z,79.04
2018-09-26T07:02:12.304Z,77.76
2018-09-26T07:03:12.325Z,78.43
2018-09-26T07:04:12.329Z,76.90
2018-09-26T07:05:12.349Z,75.57
2018-09-26T07:06:12.376Z,74.67
2018-09-26T07:07:12.398Z,74.99
2018-09-26T07:08:12.404Z,74.61
2018-09-26T07:09:12.417Z,73.62
2018-09-26T07:10:12.443Z,74.71
2018-09-26T07:11:12.454Z,74.55
2018-09-26T07:12:12.520Z,71.53
2018-09-26T07:13:12.491Z,70.14
2018-09-26T07:14:12.506Z,68.80
2018-09-26T07:15:12.534Z,68.80
2018-09-26T07:16:12.541Z,69.37
2018-09-26T07:17:12.565Z,68.67
2018-09-26T07:18:12.580Z,69.43
2018-09-26T07:19:12.601Z,68.99
2018-09-26T07:20:12.613Z,68.61
2018-09-26T07:21:12.630Z,68.96
2018-09-26T07:22:12.646Z,69.34
2018-09-26T07:23:12.673Z,69.53
2018-09-26T07:24:12.688Z,69.24
2018-09-26T07:25:12.699Z,68.90
2018-09-26T07:26:12.730Z,69.05
2018-09-26T07:27:12.746Z,68.76
2018-09-26T07:28:12.770Z,69.05
2018-09-26T07:29:12.771Z,69.97
2018-09-26T07:30:12.796Z,70.83
2018-09-26T07:31:12.813Z,71.34
2018-09-26T07:32:12.872Z,71.02
2018-09-26T07:33:12.848Z,71.02
2018-09-26T07:34:12.870Z,70.45
2018-09-26T07:35:12.884Z,70.61
2018-09-26T07:36:12.900Z,71.21
2018-09-26T07:37:12.930Z,72.26
2018-09-26T07:38:12.962Z,72.93
2018-09-26T07:39:12.958Z,72.89
2018-09-26T07:40:12.973Z,72.55
2018-09-26T07:41:13.010Z,71.88
2018-09-26T07:42:13.007Z,71.98
2018-09-26T07:43:13.035Z,72.07
2018-09-26T07:44:13.049Z,71.25
2018-09-26T07:45:13.087Z,70.52
2018-09-26T07:46:13.087Z,69.24
2018-09-26T07:47:13.120Z,69.82
2018-09-26T07:48:13.146Z,69.47
2018-09-26T07:49:13.160Z,68.99
2018-09-26T07:50:13.174Z,69.09
2018-09-26T07:51:13.177Z,68.41
2018-09-26T07:52:13.261Z,67.27
2018-09-26T07:53:13.282Z,67.08
2018-09-26T07:54:13.242Z,66.73
2018-09-26T07:55:13.252Z,64.66
2018-09-26T07:56:13.283Z,64.15
2018-09-26T07:57:13.294Z,65.07
2018-09-26T07:58:13.306Z,65.93
2018-09-26T07:59:13.353Z,65.58
2018-09-26T08:00:13.355Z,64.82
2018-09-26T08:01:13.361Z,65.14
2018-09-26T08:02:13.396Z,64.28
2018-09-26T08:03:13.394Z,65.39
2018-09-26T08:04:13.412Z,65.30
2018-09-26T08:05:13.424Z,66.09
2018-09-26T08:06:13.481Z,64.85
2018-09-26T08:07:13.485Z,62.87
2018-09-26T08:08:13.484Z,61.63
2018-09-26T08:09:13.522Z,62.65
2018-09-26T08:10:13.519Z,62.84
2018-09-26T08:11:13.572Z,63.51
2018-09-26T08:12:13.556Z,62.74
2018-09-26T08:13:13.588Z,62.27
2018-09-26T08:14:13.604Z,62.65
2018-09-26T08:15:13.641Z,62.20
2018-09-26T08:16:13.636Z,60.93
2018-09-26T08:17:13.688Z,61.72
2018-09-26T08:18:13.738Z,62.01
2018-09-26T08:19:13.694Z,60.77
2018-09-26T08:20:13.745Z,60.70
2018-09-26T08:21:13.741Z,60.22
2018-09-26T08:22:13.752Z,59.68
2018-09-26T08:23:13.770Z,59.68
2018-09-26T08:24:13.842Z,59.30
2018-09-26T08:25:13.828Z,59.27
2018-09-26T08:26:13.823Z,61.25
2018-09-26T08:27:13.866Z,61.72
2018-09-26T08:28:13.851Z,61.54
2018-09-26T08:29:13.873Z,62.04
2018-09-26T08:30:13.899Z,60.80
2018-09-26T08:31:13.932Z,60.77
2018-09-26T08:32:13.932Z,62.27
2018-09-26T08:33:13.947Z,63.60
2018-09-26T08:34:13.963Z,63.80
2018-09-26T08:35:13.980Z,63.42
2018-09-26T08:36:14.013Z,63.23
2018-09-26T08:37:14.023Z,62.77
2018-09-26T08:38:14.045Z,63.29
2018-09-26T08:39:14.072Z,65.58
2018-09-26T08:40:14.076Z,65.30
2018-09-26T08:41:14.115Z,64.18
2018-09-26T08:42:14.111Z,62.30
2018-09-26T08:43:14.150Z,62.33
2018-09-26T08:44:14.153Z,61.47
2018-09-26T08:45:14.174Z,61.28
2018-09-26T08:46:14.196Z,61.47
2018-09-26T08:47:14.203Z,62.37
2018-09-26T08:48:14.229Z,63.70
2018-09-26T08:49:14.242Z,62.68
2018-09-26T08:50:14.262Z,61.94
2018-09-26T08:51:14.287Z,60.73
2018-09-26T08:52:14.322Z,59.61
2018-09-26T08:53:14.327Z,59.20
2018-09-26T08:54:14.339Z,58.24
2018-09-26T08:55:14.371Z,58.22
2018-09-26T08:56:14.398Z,57.48
2018-09-26T08:57:14.410Z,57.38
2018-09-26T08:58:14.414Z,57.38
2018-09-26T08:59:14.481Z,57.57
2018-09-26T09:00:14.454Z,56.59
2018-09-26T09:01:14.491Z,57.26
2018-09-26T09:02:14.487Z,58.44
2018-09-26T09:03:14.514Z,57.38
2018-09-26T09:04:14.524Z,56.42
2018-09-26T09:05:14.548Z,56.71
2018-09-26T09:06:14.601Z,56.42
2018-09-26T09:07:14.590Z,55.56
2018-09-26T09:08:14.631Z,55.85
2018-09-26T09:09:14.631Z,56.74
2018-09-26T09:10:14.641Z,57.41
2018-09-26T09:11:14.662Z,56.54
2018-09-26T09:12:14.676Z,57.41
2018-09-26T09:13:14.693Z,57.41
2018-09-26T09:14:14.736Z,56.16
2018-09-26T09:15:14.733Z,55.36
2018-09-26T09:16:14.761Z,55.27
2018-09-26T09:17:14.781Z,54.56
2018-09-26T09:18:14.796Z,53.50
2018-09-26T09:19:14.807Z,53.63
2018-09-26T09:20:14.833Z,53.72
2018-09-26T09:21:14.855Z,52.67
2018-09-26T09:22:14.872Z,53.50
2018-09-26T09:23:14.892Z,52.38
2018-09-26T09:24:14.918Z,53.05
2018-09-26T09:25:14.925Z,52.64
2018-09-26T09:26:15.008Z,53.15
2018-09-26T09:27:15.049Z,52.95
2018-09-26T09:28:14.986Z,53.70
2018-09-26T09:29:15.002Z,53.99
2018-09-26T09:30:15.026Z,54.11
2018-09-26T09:31:15.044Z,52.50
2018-09-26T09:32:15.116Z,53.24
2018-09-26T09:33:15.091Z,52.89
2018-09-26T09:34:15.106Z,52.50
2018-09-26T09:35:15.119Z,51.93
2018-09-26T09:36:15.142Z,51.64
2018-09-26T09:37:15.161Z,51.28
2018-09-26T09:38:15.188Z,51.86
2018-09-26T09:39:15.201Z,51.67
2018-09-26T09:40:15.231Z,51.67
2018-09-26T09:41:15.252Z,51.28
2018-09-26T09:42:15.264Z,52.00
2018-09-26T09:43:15.280Z,51.64
2018-09-26T09:44:15.299Z,51.16
2018-09-26T09:45:15.320Z,51.76
2018-09-26T09:46:15.343Z,50.44
2018-09-26T09:47:15.363Z,49.07
2018-09-26T09:48:15.378Z,50.03
2018-09-26T09:49:15.404Z,49.46
2018-09-26T09:50:15.473Z,49.46
2018-09-26T09:51:15.444Z,49.52
2018-09-26T09:52:15.456Z,50.27
2018-09-26T09:53:15.487Z,50.23
2018-09-26T09:54:15.512Z,50.99
2018-09-26T09:55:15.531Z,50.13
2018-09-26T09:56:15.589Z,49.96
2018-09-26T09:57:15.553Z,49.74
2018-09-26T09:58:15.574Z,49.87
2018-09-26T09:59:15.594Z,48.97
2018-09-26T10:00:15.624Z,49.38
2018-09-26T10:01:15.634Z,49.33
2018-09-26T10:02:15.706Z,49.52
2018-09-26T10:03:15.712Z,49.55
2018-09-26T10:04:15.696Z,49.29
2018-09-26T10:05:15.721Z,49.22
2018-09-26T10:06:15.739Z,48.74
2018-09-26T10:07:15.790Z,49.41
2018-09-26T10:08:15.864Z,49.29
2018-09-26T10:09:15.811Z,48.90
2018-09-26T10:10:15.819Z,48.81
2018-09-26T10:11:15.842Z,48.04
2018-09-26T10:12:15.878Z,48.30
2018-09-26T10:13:15.878Z,48.81
2018-09-26T10:14:15.969Z,47.85
2018-09-26T10:15:15.911Z,47.75
2018-09-26T10:16:15.952Z,47.46
2018-09-26T10:17:15.959Z,47.36
2018-09-26T10:18:15.973Z,47.94
2018-09-26T10:19:16.002Z,48.25
2018-09-26T10:20:16.083Z,48.83
2018-09-26T10:21:16.035Z,47.58
2018-09-26T10:22:16.064Z,47.77
2018-09-26T10:23:16.083Z,47.49
2018-09-26T10:24:16.100Z,47.80
2018-09-26T10:25:16.158Z,46.93
2018-09-26T10:26:16.233Z,46.74
2018-09-26T10:27:16.154Z,46.45
2018-09-26T10:28:16.174Z,47.31
2018-09-26T10:29:16.191Z,47.61
2018-09-26T10:30:16.211Z,47.53
2018-09-26T10:31:16.232Z,46.84
2018-09-26T10:32:16.360Z,47.13
2018-09-26T10:33:16.280Z,46.23
2018-09-26T10:34:16.296Z,46.53
2018-09-26T10:35:16.321Z,45.47
2018-09-26T10:36:16.340Z,46.04
2018-09-26T10:37:16.361Z,46.62
2018-09-26T10:38:16.433Z,46.55
2018-09-26T10:39:16.397Z,46.64
2018-09-26T10:40:16.425Z,46.55
2018-09-26T10:41:16.439Z,46.55
2018-09-26T10:42:16.453Z,46.16
2018-09-26T10:43:16.478Z,45.85
2018-09-26T10:44:16.535Z,45.66
2018-09-26T10:45:16.513Z,45.76
2018-09-26T10:46:16.533Z,46.04
2018-09-26T10:47:16.555Z,46.26
2018-09-26T10:48:16.578Z,45.68
2018-09-26T10:49:16.600Z,45.42
2018-09-26T10:50:16.625Z,44.82
2018-09-26T10:51:16.632Z,44.74
2018-09-26T10:52:16.656Z,44.82
2018-09-26T10:53:16.672Z,44.43
2018-09-26T10:54:16.695Z,44.82
2018-09-26T10:55:16.718Z,45.01
2018-09-26T10:56:16.789Z,44.72
2018-09-26T10:57:16.760Z,45.47
2018-09-26T10:58:16.785Z,46.06
2018-09-26T10:59:16.793Z,45.56
2018-09-26T11:00:16.816Z,45.37
2018-09-26T11:01:16.838Z,45.29
2018-09-26T11:02:16.894Z,45.66
2018-09-26T11:03:16.873Z,46.06
2018-09-26T11:04:16.906Z,45.90
2018-09-26T11:05:16.920Z,45.34
2018-09-26T11:06:16.933Z,45.15
2018-09-26T11:07:16.955Z,44.35
2018-09-26T11:08:16.997Z,44.74
2018-09-26T11:09:17.012Z,44.93
2018-09-26T11:10:17.100Z,44.86
2018-09-26T11:11:17.047Z,44.86
2018-09-26T11:12:17.063Z,45.20
2018-09-26T11:13:17.087Z,45.80
2018-09-26T11:14:17.130Z,45.70
2018-09-26T11:15:17.187Z,44.93
2018-09-26T11:16:17.209Z,44.76
2018-09-26T11:17:17.170Z,44.67
2018-09-26T11:18:17.185Z,44.38
2018-09-26T11:19:17.222Z,44.21
2018-09-26T11:20:17.281Z,43.63
2018-09-26T11:21:17.283Z,43.41
2018-09-26T11:22:17.315Z,43.41
2018-09-26T11:23:17.290Z,44.48
2018-09-26T11:24:17.311Z,44.45
2018-09-26T11:25:17.321Z,43.68
2018-09-26T11:26:17.497Z,43.32
2018-09-26T11:27:17.380Z,43.78
2018-09-26T11:28:17.441Z,43.97
2018-09-26T11:29:17.423Z,43.41
2018-09-26T11:30:17.431Z,42.84
2018-09-26T11:31:17.452Z,42.65
2018-09-26T11:32:17.545Z,43.13
2018-09-26T11:33:17.519Z,42.84
2018-09-26T11:34:17.561Z,43.03
2018-09-26T11:35:17.537Z,42.93
2018-09-26T11:36:17.547Z,41.86
2018-09-26T11:37:17.567Z,42.74
2018-09-26T11:38:17.692Z,43.03
2018-09-26T11:39:17.617Z,42.67
2018-09-26T11:40:17.687Z,42.84
2018-09-26T11:41:17.656Z,43.03
2018-09-26T11:42:17.670Z,43.15
2018-09-26T11:43:17.699Z,42.74
2018-09-26T11:44:17.725Z,42.24
2018-09-26T11:45:17.735Z,42.07
2018-09-26T11:46:17.780Z,42.07
2018-09-26T11:47:17.778Z,41.59
2018-09-26T11:48:17.802Z,41.49
2018-09-26T11:49:17.815Z,40.63
2018-09-26T11:50:17.846Z,40.34
2018-09-26T11:51:17.862Z,39.76
2018-09-26T11:52:17.905Z,40.05
2018-09-26T11:53:17.903Z,40.72
2018-09-26T11:54:17.917Z,40.72
2018-09-26T11:55:17.942Z,40.07
2018-09-26T11:56:18.017Z,40.07
2018-09-26T11:57:17.982Z,39.79
2018-09-26T11:58:18.047Z,39.41
2018-09-26T11:59:18.022Z,39.41
2018-09-26T12:00:18.038Z,38.91
2018-09-26T12:01:18.074Z,39.49
2018-09-26T12:02:18.150Z,39.39
2018-09-26T12:03:18.105Z,39.78
2018-09-26T12:04:18.172Z,39.78
2018-09-26T12:05:18.149Z,39.68
2018-09-26T12:06:18.199Z,39.79
2018-09-26T12:07:18.227Z,40.07
2018-09-26T12:08:18.220Z,40.36
2018-09-26T12:09:18.230Z,39.83
2018-09-26T12:10:18.316Z,40.22
2018-09-26T12:11:18.269Z,40.03
2018-09-26T12:12:18.310Z,40.24
2018-09-26T12:13:18.330Z,39.37
2018-09-26T12:14:18.346Z,38.99
2018-09-26T12:15:18.387Z,38.59
2018-09-26T12:16:18.413Z,39.16
2018-09-26T12:17:18.392Z,38.60
2018-09-26T12:18:18.490Z,38.29
2018-09-26T12:19:18.544Z,38.01
2018-09-26T12:20:18.456Z,38.12
2018-09-26T12:21:30.252Z,38.01
2018-09-26T12:22:18.584Z,37.93
2018-09-26T12:23:18.510Z,37.34
2018-09-26T12:24:18.545Z,38.01
2018-09-26T12:25:18.620Z,38.20
2018-09-26T12:26:18.578Z,38.41
2018-09-26T12:27:18.599Z,37.76
2018-09-26T12:28:18.702Z,37.35
2018-09-26T12:29:18.654Z,37.64
2018-09-26T12:30:18.664Z,38.41
2018-09-26T12:31:18.710Z,38.39
2018-09-26T12:32:18.697Z,38.60
2018-09-26T12:33:18.725Z,38.33
2018-09-26T12:34:18.754Z,37.85
2018-09-26T12:35:18.757Z,38.43
2018-09-26T12:36:18.831Z,38.14
2018-09-26T12:37:18.803Z,38.14
2018-09-26T12:38:18.835Z,39.20
2018-09-26T12:39:18.862Z,39.39
2018-09-26T12:40:18.932Z,39.09
2018-09-26T12:41:18.889Z,39.18
2018-09-26T12:42:18.936Z,38.70
2018-09-26T12:43:18.929Z,38.81
2018-09-26T12:44:18.946Z,38.14
2018-09-26T12:45:18.978Z,38.33
2018-09-26T12:46:19.032Z,38.72
2018-09-26T12:47:19.021Z,38.64
2018-09-26T12:48:19.082Z,38.04
2018-09-26T12:49:19.048Z,38.43
2018-09-26T12:50:19.068Z,38.53
2018-09-26T12:51:19.092Z,38.81
2018-09-26T12:52:19.170Z,38.51